»·PEaware :: N312TB L88-KSBP

N312TB :: L88-KSBP

FLIGHT INFORMATION

Flight Status: Arrived
Operator: Privately registered:
United States
More flights under this callsign
Pilot: Gavin S. (2922)
Aircraft: CESSNA 172 SKYHAWK
(C172)
More flights by this aircraft type
Origin: L88 New Cuyama
United States
Destination: KSBP San Luis Co Regl
United States
More flights between these airports :: More routes between these airports
Route: ->
File this flight plan on PilotEdge
Remarks: CAT-02 Flight
Altitude:
(Current/Filed)
4,500ft
Speed:
(Current/Filed)
115kts
Departed: 08-Nov-18 06:39 PM
Arrived: 08-Nov-18 07:08 PM
Distance/Time
Traveled:
50nm/0:29
Distance/Time
To Go:
Arrived

Flight Plot

Page will automatically refresh every two minutes.

Flight plan parsing failed; only flown route is shown


Map Options




Map Legend


Flown Route
Filed Route
Departure Airport
Arrival Airport
Navaid (VOR, NDB)
Fix

Horizontal Profiles

Position Reports

Time Latitude Longitude Heading Altitude Ground
Speed
08-Nov-18 18:22 34.942855 -119.690286 204 2207ft 0kts
08-Nov-18 18:23 34.942855 -119.690286 204 2207ft 0kts
08-Nov-18 18:24 34.942855 -119.690286 204 2207ft 0kts
08-Nov-18 18:25 34.942855 -119.690286 204 2207ft 0kts
08-Nov-18 18:26 34.942855 -119.690286 204 2207ft 0kts
08-Nov-18 18:27 34.942855 -119.690286 204 2207ft 0kts
08-Nov-18 18:28 34.942855 -119.690286 204 2207ft 0kts
08-Nov-18 18:29 34.942855 -119.690286 204 2207ft 0kts
08-Nov-18 18:30 34.942855 -119.690286 204 2207ft 0kts
08-Nov-18 18:31 34.943148 -119.691208 315 2207ft 11kts
08-Nov-18 18:32 34.943265 -119.691464 275 2207ft 0kts
08-Nov-18 18:33 34.943200 -119.691238 127 2207ft 0kts
08-Nov-18 18:34 34.943181 -119.691209 127 2207ft 1kts
08-Nov-18 18:35 34.943181 -119.691209 127 2207ft 1kts
08-Nov-18 18:36 34.943181 -119.691209 127 2207ft 1kts
08-Nov-18 18:37 34.943181 -119.691209 127 2207ft 1kts
08-Nov-18 18:38 34.942826 -119.691048 202 2207ft 0kts
08-Nov-18 18:39 34.941793 -119.690103 114 2207ft 14kts
08-Nov-18 18:40 34.939565 -119.684668 115 2207ft 15kts
08-Nov-18 18:41 34.937760 -119.680153 259 2207ft 9kts
08-Nov-18 18:42 34.942831 -119.691864 301 2363ft 75kts
08-Nov-18 18:43 34.953202 -119.713504 289 2979ft 74kts
08-Nov-18 18:44 34.958093 -119.738307 278 3543ft 75kts
08-Nov-18 18:45 34.965415 -119.762227 290 4081ft 76kts
08-Nov-18 18:46 34.971413 -119.787600 284 4531ft 85kts
08-Nov-18 18:47 34.978875 -119.821457 303 4507ft 108kts
08-Nov-18 18:48 34.992660 -119.853965 292 4507ft 108kts
08-Nov-18 18:49 35.003688 -119.888277 291 4507ft 108kts
08-Nov-18 18:50 35.014572 -119.922957 291 4507ft 109kts
08-Nov-18 18:51 35.033116 -119.951876 310 4507ft 109kts
08-Nov-18 18:52 35.052922 -119.979954 310 4506ft 109kts
08-Nov-18 18:53 35.072621 -120.008175 310 4505ft 109kts
08-Nov-18 18:54 35.091538 -120.037405 308 4503ft 109kts
08-Nov-18 18:55 35.110147 -120.067100 308 4502ft 110kts
08-Nov-18 18:56 35.121978 -120.101573 287 4501ft 112kts
08-Nov-18 18:57 35.129914 -120.138412 287 4500ft 112kts
08-Nov-18 18:58 35.137887 -120.175478 287 4500ft 112kts
08-Nov-18 18:59 35.145886 -120.212727 287 4499ft 113kts
08-Nov-18 19:00 35.153875 -120.249989 287 4499ft 113kts
08-Nov-18 19:01 35.161851 -120.287236 287 4498ft 112kts
08-Nov-18 19:02 35.169719 -120.324044 286 4498ft 111kts
08-Nov-18 19:03 35.177497 -120.360495 285 4498ft 109kts
08-Nov-18 19:04 35.185312 -120.397168 281 4498ft 114kts
08-Nov-18 19:05 35.193431 -120.435444 286 4251ft 121kts
08-Nov-18 19:06 35.202129 -120.476250 285 3855ft 125kts
08-Nov-18 19:07 35.210883 -120.517566 285 3458ft 126kts
08-Nov-18 19:08 35.218080 -120.552262 285 3124ft 126kts
08-Nov-18 19:09 35.220531 -120.595543 270 1987ft 131kts
08-Nov-18 19:10 35.232149 -120.632114 310 438ft 93kts
08-Nov-18 19:11 35.239926 -120.643885 57 216ft 0kts
08-Nov-18 19:12 35.239714 -120.643289 125 216ft 13kts
08-Nov-18 19:13 35.238611 -120.639996 101 216ft 4kts
08-Nov-18 19:14 35.238506 -120.639936 177 216ft 0kts
08-Nov-18 19:15 35.238506 -120.639936 177 216ft 0kts
08-Nov-18 19:16 35.238506 -120.639936 177 216ft 0kts
08-Nov-18 19:17 35.238506 -120.639936 177 216ft 0kts
08-Nov-18 19:18 35.238506 -120.639936 177 216ft 0kts
08-Nov-18 19:19 35.238506 -120.639936 177 216ft 0kts
08-Nov-18 19:20 35.238506 -120.639936 177 216ft 0kts
08-Nov-18 19:21 35.238506 -120.639936 177 216ft 0kts
08-Nov-18 19:22 35.238506 -120.639936 177 216ft 0kts
08-Nov-18 19:23 35.238506 -120.639936 177 216ft 0kts
08-Nov-18 19:24 35.238506 -120.639936 177 216ft 0kts
08-Nov-18 19:25 35.238506 -120.639936 177 216ft 0kts
08-Nov-18 19:26 35.238506 -120.639936 177 216ft 0kts

Navigation Log

Ident Type
Flight plan parsing failed, navigation log unavailable